Time;durP1;ratioP1;P1;durP2;ratioP2;P2;SDS_P1;SDS_P2;PMS_P1;PMS_P2;Temp;Humidity;BMP_temperature;BMP_pressure;BME280_temperature;BME280_humidity;BME280_pressure;Samples;Min_cycle;Max_cycle;Signal;HPM_P1;HPM_P2
2022/08/02 00:00:51;;;;;;;;;;;;;;;;;;4976972;28;8657;-83
2022/08/02 00:03:16;;;;;;;;;;;;;;;;;;4977070;28;7242;-82
2022/08/02 00:05:42;;;;;;;;;;;;;;;;;;4976851;28;7347;-82
2022/08/02 00:08:10;;;;;;;;;;;;;;;;;;4976040;28;8324;-83
2022/08/02 00:10:36;;;;;;;;;;;;;;;;;;4976537;28;8620;-83
2022/08/02 00:13:01;;;;;;;;;;;;;;;;;;4976521;28;7122;-82
2022/08/02 00:15:26;;;;;;;;;;;;;;;;;;4976668;28;7413;-84
2022/08/02 00:17:52;;;;;;;;;;;;;;;;;;4973067;28;6803;-84
2022/08/02 00:20:17;;;;;;;;;;;;;;;;;;4957548;28;7420;-83
2022/08/02 00:22:43;;;;;;;;;;;;;;;;;;4957285;28;9410;-83
2022/08/02 00:25:09;;;;;;;;;;;;;;;;;;4957293;28;7033;-83
2022/08/02 00:27:34;;;;;;;;;;;;;;;;;;4957211;28;7715;-82
2022/08/02 00:30:00;;;;;;;;;;;;;;;;;;4957220;28;7157;-83
2022/08/02 00:32:26;;;;;;;;;;;;;;;;;;4957242;28;8577;-82
2022/08/02 00:34:52;;;;;;;;;;;;;;;;;;4957021;28;7150;-82
2022/08/02 00:37:17;;;;;;;;;;;;;;;;;;4957114;28;7003;-83
2022/08/02 00:39:43;;;;;;;;;;;;;;;;;;4956952;28;7013;-82
2022/08/02 00:42:09;;;;;;;;;;;;;;;;;;4957004;28;8391;-83
2022/08/02 00:44:34;;;;;;;;;;;;;;;;;;4956854;28;7401;-83
2022/08/02 00:47:00;;;;;;;;;;;;;;;;;;4957005;28;8720;-82
2022/08/02 00:49:26;;;;;;;;;;;;;;;;;;4956747;28;7003;-83
2022/08/02 00:51:52;;;;;;;;;;;;;;;;;;4956758;28;7330;-82
2022/08/02 00:54:17;;;;;;;;;;;;;;;;;;4956547;28;8768;-83
2022/08/02 00:56:43;;;;;;;;;;;;;;;;;;4956637;28;7157;-84
2022/08/02 00:59:09;;;;;;;;;;;;;;;;;;4956852;28;7095;-84
2022/08/02 01:01:37;;;;;;;;;;;;;;;;;;4956484;28;8401;-84
2022/08/02 01:04:04;;;;;;;;;;;;;;;;;;4956796;28;6824;-84
2022/08/02 01:06:32;;;;;;;;;;;;;;;;;;4956708;28;7166;-83
2022/08/02 01:08:58;;;;;;;;;;;;;;;;;;4956388;28;7040;-83
2022/08/02 01:11:24;;;;;;;;;;;;;;;;;;4956319;28;7111;-83
2022/08/02 01:13:51;;;;;;;;;;;;;;;;;;4956510;28;8376;-84
2022/08/02 01:16:21;;;;;;;;;;;;;;;;;;4955963;28;8391;-83
2022/08/02 01:18:51;;;;;;;;;;;;;;;;;;4956060;28;7163;-84
2022/08/02 01:21:35;;;;;;;;;;;;;;;;;;4955648;28;7803;-83
2022/08/02 01:24:20;;;;;;;;;;;;;;;;;;4972421;28;8475;-85
2022/08/02 01:27:00;;;;;;;;;;;;;;;;;;4972260;28;8445;-83
2022/08/02 01:29:55;;;;;;;;;;;;;;;;;;4956653;28;8510;-84
2022/08/02 01:32:24;;;;;;;;;;;;;;;;;;4963776;28;7142;-83
2022/08/02 01:34:54;;;;;;;;;;;;;;;;;;4955961;28;7151;-84
2022/08/02 01:37:38;;;;;;;;;;;;;;;;;;4955837;28;8435;-84
2022/08/02 01:40:09;;;;;;;;;;;;;;;;;;4972330;28;7019;-82
2022/08/02 01:42:36;;;;;;;;;;;;;;;;;;4956085;28;8398;-83
2022/08/02 01:45:03;;;;;;;;;;;;;;;;;;4955738;28;7169;-83
2022/08/02 01:47:36;;;;;;;;;;;;;;;;;;4956205;28;7027;-82
2022/08/02 01:50:05;;;;;;;;;;;;;;;;;;4955973;28;7090;-84
2022/08/02 01:52:33;;;;;;;;;;;;;;;;;;4955651;28;7243;-83
2022/08/02 01:55:20;;;;;;;;;;;;;;;;;;4955231;28;7357;-83
2022/08/02 01:57:48;;;;;;;;;;;;;;;;;;4971836;28;7039;-83
2022/08/02 02:00:15;;;;;;;;;;;;;;;;;;4955577;28;8299;-84
2022/08/02 02:02:46;;;;;;;;;;;;;;;;;;4956059;28;8973;-83
2022/08/02 02:05:19;;;;;;;;;;;;;;;;;;4956229;29;7187;-84
2022/08/02 02:07:48;;;;;;;;;;;;;;;;;;4955278;29;8413;-83
2022/08/02 02:10:16;;;;;;;;;;;;;;;;;;4955509;29;7245;-83
2022/08/02 02:12:45;;;;;;;;;;;;;;;;;;4955742;29;8712;-82
2022/08/02 02:15:12;;;;;;;;;;;;;;;;;;4955772;29;7036;-82
2022/08/02 02:17:41;;;;;;;;;;;;;;;;;;4955356;29;8251;-83
2022/08/02 02:20:12;;;;;;;;;;;;;;;;;;4955239;29;8319;-83
2022/08/02 02:22:37;;;;;;;;;;;;;;;;;;4955528;29;7159;-83
2022/08/02 02:25:03;;;;;;;;;;;;;;;;;;4955777;29;7114;-83
2022/08/02 02:27:30;;;;;;;;;;;;;;;;;;4955794;29;6966;-82
2022/08/02 02:29:57;;;;;;;;;;;;;;;;;;4955450;29;8257;-83
2022/08/02 02:32:27;;;;;;;;;;;;;;;;;;4957791;28;8415;-81
2022/08/02 02:34:55;;;;;;;;;;;;;;;;;;4959498;28;7066;-83
2022/08/02 02:37:22;;;;;;;;;;;;;;;;;;4960999;28;7622;-83
2022/08/02 02:39:50;;;;;;;;;;;;;;;;;;4959270;28;8268;-82
2022/08/02 02:42:18;;;;;;;;;;;;;;;;;;4959424;28;7106;-82
2022/08/02 02:44:46;;;;;;;;;;;;;;;;;;4959170;28;7267;-82
2022/08/02 02:47:13;;;;;;;;;;;;;;;;;;4959115;28;7120;-83
2022/08/02 02:49:40;;;;;;;;;;;;;;;;;;4959236;28;8894;-82
2022/08/02 02:52:07;;;;;;;;;;;;;;;;;;4958829;28;7019;-82
2022/08/02 02:54:35;;;;;;;;;;;;;;;;;;4958915;28;7133;-83
2022/08/02 02:57:04;;;;;;;;;;;;;;;;;;4958525;28;7156;-82
2022/08/02 02:59:31;;;;;;;;;;;;;;;;;;4958967;28;8415;-82
2022/08/02 03:01:57;;;;;;;;;;;;;;;;;;4959114;28;7222;-84
2022/08/02 03:04:24;;;;;;;;;;;;;;;;;;4958751;28;7146;-84
2022/08/02 03:06:49;;;;;;;;;;;;;;;;;;4958350;28;7228;-83
2022/08/02 03:09:15;;;;;;;;;;;;;;;;;;4958945;28;7241;-83
2022/08/02 03:11:41;;;;;;;;;;;;;;;;;;4958524;28;7126;-85
2022/08/02 03:14:11;;;;;;;;;;;;;;;;;;4958359;28;7149;-83
2022/08/02 03:16:44;;;;;;;;;;;;;;;;;;4958407;28;7006;-83
2022/08/02 03:19:10;;;;;;;;;;;;;;;;;;4958760;28;7212;-84
2022/08/02 03:21:36;;;;;;;;;;;;;;;;;;4958070;28;7723;-85
2022/08/02 03:24:02;;;;;;;;;;;;;;;;;;4958328;28;7049;-85
2022/08/02 03:26:27;;;;;;;;;;;;;;;;;;4958444;28;7135;-85
2022/08/02 03:28:53;;;;;;;;;;;;;;;;;;4958437;28;7340;-84
2022/08/02 03:31:18;;;;;;;;;;;;;;;;;;4958242;28;7136;-83
2022/08/02 03:33:45;;;;;;;;;;;;;;;;;;4958479;28;7137;-85
2022/08/02 03:36:13;;;;;;;;;;;;;;;;;;4958016;28;7200;-84
2022/08/02 03:38:40;;;;;;;;;;;;;;;;;;4958073;28;7349;-84
2022/08/02 03:41:07;;;;;;;;;;;;;;;;;;4958306;28;7034;-84
2022/08/02 03:43:35;;;;;;;;;;;;;;;;;;4957095;28;8445;-84
2022/08/02 03:46:03;;;;;;;;;;;;;;;;;;4958641;28;7243;-84
2022/08/02 03:48:30;;;;;;;;;;;;;;;;;;4958254;28;7376;-83
2022/08/02 03:50:56;;;;;;;;;;;;;;;;;;4957987;28;7152;-83
2022/08/02 03:53:23;;;;;;;;;;;;;;;;;;4958949;28;7187;-84
2022/08/02 03:55:49;;;;;;;;;;;;;;;;;;4957392;28;7250;-83
2022/08/02 03:58:19;;;;;;;;;;;;;;;;;;4957962;28;7228;-83
2022/08/02 04:00:45;;;;;;;;;;;;;;;;;;4958129;28;7108;-83
2022/08/02 04:03:10;;;;;;;;;;;;;;;;;;4958018;28;7169;-83
2022/08/02 04:05:36;;;;;;;;;;;;;;;;;;4957677;28;7134;-85
2022/08/02 04:08:01;;;;;;;;;;;;;;;;;;4957321;28;8709;-84
2022/08/02 04:10:27;;;;;;;;;;;;;;;;;;4958262;28;7135;-84
2022/08/02 04:12:54;;;;;;;;;;;;;;;;;;4957638;28;7131;-84
2022/08/02 04:15:20;;;;;;;;;;;;;;;;;;4957313;28;7047;-83
2022/08/02 04:17:50;;;;;;;;;;;;;;;;;;4957357;28;7174;-83
2022/08/02 04:20:27;;;;;;;;;;;;;;;;;;4957195;28;7445;-84
2022/08/02 04:23:05;;;;;;;;;;;;;;;;;;4957068;28;8343;-83
2022/08/02 04:25:33;;;;;;;;;;;;;;;;;;4957160;28;7041;-83
2022/08/02 04:27:59;;;;;;;;;;;;;;;;;;4956860;28;8488;-84
2022/08/02 04:30:25;;;;;;;;;;;;;;;;;;4957657;28;8482;-83
2022/08/02 04:32:51;;;;;;;;;;;;;;;;;;4957226;28;8429;-84
2022/08/02 04:35:17;;;;;;;;;;;;;;;;;;4957360;28;7119;-84
2022/08/02 04:37:43;;;;;;;;;;;;;;;;;;4956968;28;7429;-84
2022/08/02 04:40:10;;;;;;;;;;;;;;;;;;4970908;28;7149;-82
2022/08/02 04:42:36;;;;;;;;;;;;;;;;;;4990697;28;8322;-83
2022/08/02 04:45:04;;;;;;;;;;;;;;;;;;4991535;28;7023;-82
2022/08/02 04:47:29;;;;;;;;;;;;;;;;;;4991672;28;7187;-84
2022/08/02 04:49:55;;;;;;;;;;;;;;;;;;4975854;28;7106;-85
2022/08/02 04:52:20;;;;;;;;;;;;;;;;;;4977185;28;7131;-85
2022/08/02 04:54:46;;;;;;;;;;;;;;;;;;4975839;28;7185;-85
2022/08/02 04:59:55;;;;;;;;;;;;;;;;;;4976334;28;6967;-82
2022/08/02 05:02:21;;;;;;;;;;;;;;;;;;4975544;28;8708;-85
2022/08/02 05:04:47;;;;;;;;;;;;;;;;;;4976165;28;7248;-86
2022/08/02 05:07:13;;;;;;;;;;;;;;;;;;4976573;28;7050;-84
2022/08/02 05:09:39;;;;;;;;;;;;;;;;;;4976378;28;7136;-84
2022/08/02 05:12:06;;;;;;;;;;;;;;;;;;4975873;28;8358;-86
2022/08/02 05:14:31;;;;;;;;;;;;;;;;;;4976336;28;7238;-84
2022/08/02 05:16:56;;;;;;;;;;;;;;;;;;4976733;28;7388;-84
2022/08/02 05:19:22;;;;;;;;;;;;;;;;;;4978619;28;7023;-86
2022/08/02 05:21:47;;;;;;;;;;;;;;;;;;4978451;28;7110;-86
2022/08/02 05:24:13;;;;;;;;;;;;;;;;;;4978827;28;7194;-85
2022/08/02 05:26:38;;;;;;;;;;;;;;;;;;4978652;28;6924;-86
2022/08/02 05:29:04;;;;;;;;;;;;;;;;;;4978836;28;7319;-86
2022/08/02 05:31:31;;;;;;;;;;;;;;;;;;4978954;28;7116;-86
2022/08/02 05:33:57;;;;;;;;;;;;;;;;;;4978685;28;7067;-86
2022/08/02 05:36:22;;;;;;;;;;;;;;;;;;4978583;28;7178;-85
2022/08/02 05:38:52;;;;;;;;;;;;;;;;;;4978306;28;6994;-85
2022/08/02 05:41:19;;;;;;;;;;;;;;;;;;4978792;28;7049;-86
2022/08/02 05:43:46;;;;;;;;;;;;;;;;;;4978980;28;7157;-85
2022/08/02 05:46:11;;;;;;;;;;;;;;;;;;4978247;28;7144;-86
2022/08/02 05:48:37;;;;;;;;;;;;;;;;;;4978333;28;8424;-86
2022/08/02 05:51:05;;;;;;;;;;;;;;;;;;4978261;28;7134;-83
2022/08/02 05:53:44;;;;;;;;;;;;;;;;;;4978035;28;8366;-86
2022/08/02 05:56:25;;;;;;;;;;;;;;;;;;4977749;28;8598;-85
2022/08/02 05:59:06;;;;;;;;;;;;;;;;;;4994070;28;7161;-85
2022/08/02 06:01:35;;;;;;;;;;;;;;;;;;4994262;28;7035;-87
2022/08/02 06:04:04;;;;;;;;;;;;;;;;;;4978119;28;7054;-85
2022/08/02 06:06:32;;;;;;;;;;;;;;;;;;4977849;28;7210;-86
2022/08/02 06:09:03;;;;;;;;;;;;;;;;;;4978216;28;7165;-86
2022/08/02 06:11:34;;;;;;;;;;;;;;;;;;4977882;28;8295;-86
2022/08/02 06:14:01;;;;;;;;;;;;;;;;;;4978516;28;8493;-86
2022/08/02 06:16:27;;;;;;;;;;;;;;;;;;4978017;28;8422;-87
2022/08/02 06:18:52;;;;;;;;;;;;;;;;;;4977551;28;7151;-85
2022/08/02 06:21:20;;;;;;;;;;;;;;;;;;4978297;28;7010;-85
2022/08/02 06:23:47;;;;;;;;;;;;;;;;;;4978011;28;7209;-85
2022/08/02 06:26:14;;;;;;;;;;;;;;;;;;4978162;28;7134;-85
2022/08/02 06:28:39;;;;;;;;;;;;;;;;;;4977804;28;8343;-86
2022/08/02 06:31:06;;;;;;;;;;;;;;;;;;4978470;28;7149;-85
2022/08/02 06:33:32;;;;;;;;;;;;;;;;;;4978563;28;7435;-86
2022/08/02 06:36:09;;;;;;;;;;;;;;;;;;4978433;28;7392;-86
2022/08/02 06:39:04;;;;;;;;;;;;;;;;;;4977797;28;7358;-86
2022/08/02 06:41:38;;;;;;;;;;;;;;;;;;4960604;28;7345;-86
2022/08/02 06:44:03;;;;;;;;;;;;;;;;;;4977610;28;6835;-86
2022/08/02 06:46:30;;;;;;;;;;;;;;;;;;4978044;28;7491;-86
2022/08/02 06:48:56;;;;;;;;;;;;;;;;;;4977747;28;7027;-86
2022/08/02 06:51:22;;;;;;;;;;;;;;;;;;4977451;28;8437;-86
2022/08/02 06:53:48;;;;;;;;;;;;;;;;;;4977748;28;7057;-86
2022/08/02 06:56:14;;;;;;;;;;;;;;;;;;4978017;28;7145;-87
2022/08/02 06:58:40;;;;;;;;;;;;;;;;;;4977448;28;7202;-87
2022/08/02 07:01:09;;;;;;;;;;;;;;;;;;4977914;28;7488;-86
2022/08/02 07:03:36;;;;;;;;;;;;;;;;;;4977504;28;7259;-85
2022/08/02 07:06:03;;;;;;;;;;;;;;;;;;4977768;28;7036;-86
2022/08/02 07:08:32;;;;;;;;;;;;;;;;;;4977934;28;6854;-86
2022/08/02 07:11:00;;;;;;;;;;;;;;;;;;4977326;28;7061;-85
2022/08/02 07:13:26;;;;;;;;;;;;;;;;;;4977871;28;7044;-85
2022/08/02 07:15:53;;;;;;;;;;;;;;;;;;4977069;28;8301;-86
2022/08/02 07:18:18;;;;;;;;;;;;;;;;;;4977563;28;8486;-86
2022/08/02 07:20:46;;;;;;;;;;;;;;;;;;4981212;28;6953;-84
2022/08/02 07:23:15;;;;;;;;;;;;;;;;;;4980465;28;8413;-86
2022/08/02 07:25:40;;;;;;;;;;;;;;;;;;4980892;28;7053;-86
2022/08/02 07:28:09;;;;;;;;;;;;;;;;;;4980550;28;8314;-85
2022/08/02 07:30:35;;;;;;;;;;;;;;;;;;4980769;28;7165;-72
2022/08/02 07:33:01;;;;;;;;;;;;;;;;;;4981050;28;8354;-73
2022/08/02 07:35:27;;;;;;;;;;;;;;;;;;4980306;28;8459;-73
2022/08/02 07:37:52;;;;;;;;;;;;;;;;;;4980090;28;7046;-72
2022/08/02 07:40:19;;;;;;;;;;;;;;;;;;4980059;28;7072;-74
2022/08/02 07:42:46;;;;;;;;;;;;;;;;;;4980873;28;8866;-73
2022/08/02 07:45:13;;;;;;;;;;;;;;;;;;4980092;28;7214;-73
2022/08/02 07:47:40;;;;;;;;;;;;;;;;;;4980902;28;7089;-74
2022/08/02 07:50:06;;;;;;;;;;;;;;;;;;4980099;28;7242;-73
2022/08/02 07:52:32;;;;;;;;;;;;;;;;;;4980430;28;7198;-84
2022/08/02 07:54:57;;;;;;;;;;;;;;;;;;4980049;28;7172;-86
2022/08/02 07:57:24;;;;;;;;;;;;;;;;;;4980519;28;7057;-85
2022/08/02 07:59:50;;;;;;;;;;;;;;;;;;4980042;28;7103;-84
2022/08/02 08:02:16;;;;;;;;;;;;;;;;;;4979976;28;7554;-85
2022/08/02 08:04:42;;;;;;;;;;;;;;;;;;4979706;28;8476;-84
2022/08/02 08:07:10;;;;;;;;;;;;;;;;;;4979796;28;8435;-84
2022/08/02 08:09:40;;;;;;;;;;;;;;;;;;4980626;28;7102;-84
2022/08/02 08:12:09;;;;;;;;;;;;;;;;;;4980181;28;8368;-84
2022/08/02 08:14:35;;;;;;;;;;;;;;;;;;4979869;28;8432;-85
2022/08/02 08:17:02;;;;;;;;;;;;;;;;;;4980073;28;8476;-84
2022/08/02 08:19:28;;;;;;;;;;;;;;;;;;4979664;28;7263;-85
2022/08/02 08:21:53;;;;;;;;;;;;;;;;;;4979455;28;7266;-84
2022/08/02 08:24:19;;;;;;;;;;;;;;;;;;4979839;28;8443;-85
2022/08/02 08:26:44;;;;;;;;;;;;;;;;;;4979696;28;6835;-83
2022/08/02 08:29:10;;;;;;;;;;;;;;;;;;4979102;28;7200;-83
2022/08/02 08:31:35;;;;;;;;;;;;;;;;;;4978889;28;7357;-83
2022/08/02 08:34:03;;;;;;;;;;;;;;;;;;4978953;28;8943;-85
2022/08/02 08:36:28;;;;;;;;;;;;;;;;;;4978649;28;8481;-85
2022/08/02 08:38:54;;;;;;;;;;;;;;;;;;4978687;28;8454;-84
2022/08/02 08:41:19;;;;;;;;;;;;;;;;;;4978884;28;8528;-85
2022/08/02 08:43:46;;;;;;;;;;;;;;;;;;4978970;28;8764;-82
2022/08/02 08:46:20;;;;;;;;;;;;;;;;;;4978750;28;8772;-84
2022/08/02 08:48:48;;;;;;;;;;;;;;;;;;4979007;28;8570;-72
2022/08/02 08:51:18;;;;;;;;;;;;;;;;;;4978893;28;7103;-75
2022/08/02 08:53:47;;;;;;;;;;;;;;;;;;4978726;28;8834;-73
2022/08/02 08:56:14;;;;;;;;;;;;;;;;;;4974728;28;7399;-74
2022/08/02 08:58:41;;;;;;;;;;;;;;;;;;4992923;28;7428;-85
2022/08/02 09:01:07;;;;;;;;;;;;;;;;;;4991904;28;7097;-84
2022/08/02 09:03:33;;;;;;;;;;;;;;;;;;4992088;28;8672;-85
2022/08/02 09:05:59;;;;;;;;;;;;;;;;;;4991965;28;8450;-85
2022/08/02 09:08:25;;;;;;;;;;;;;;;;;;4992223;28;7221;-85
2022/08/02 09:10:51;;;;;;;;;;;;;;;;;;4991423;28;8473;-86
2022/08/02 09:13:21;;;;;;;;;;;;;;;;;;4991297;28;8376;-82
2022/08/02 09:15:52;;;;;;;;;;;;;;;;;;4990661;28;7129;-84
2022/08/02 09:18:18;;;;;;;;;;;;;;;;;;4991127;28;8557;-79
2022/08/02 09:20:56;;;;;;;;;;;;;;;;;;4990995;28;8444;-85
2022/08/02 09:23:22;;;;;;;;;;;;;;;;;;4991689;28;8773;-85
2022/08/02 09:25:55;;;;;;;;;;;;;;;;;;4991086;28;8380;-85
2022/08/02 09:28:24;;;;;;;;;;;;;;;;;;4991113;28;8824;-84
2022/08/02 09:30:50;;;;;;;;;;;;;;;;;;4992210;28;8800;-85
2022/08/02 09:33:24;;;;;;;;;;;;;;;;;;4989731;28;7268;-84
2022/08/02 09:35:58;;;;;;;;;;;;;;;;;;4990486;28;8569;-86
2022/08/02 09:38:23;;;;;;;;;;;;;;;;;;4990825;28;7079;-86
2022/08/02 09:40:48;;;;;;;;;;;;;;;;;;4990132;28;7056;-86
2022/08/02 09:43:16;;;;;;;;;;;;;;;;;;4990166;28;8597;-85
2022/08/02 09:45:41;;;;;;;;;;;;;;;;;;4990637;28;8507;-85
2022/08/02 09:48:08;;;;;;;;;;;;;;;;;;4990418;28;8469;-86
2022/08/02 09:50:35;;;;;;;;;;;;;;;;;;4991246;28;7100;-84
2022/08/02 09:53:02;;;;;;;;;;;;;;;;;;4991383;28;8589;-86
2022/08/02 09:55:28;;;;;;;;;;;;;;;;;;4991661;28;8487;-86
2022/08/02 09:57:54;;;;;;;;;;;;;;;;;;4991426;28;8551;-85
2022/08/02 10:00:20;;;;;;;;;;;;;;;;;;4991284;28;8518;-86
2022/08/02 10:03:06;;;;;;;;;;;;;;;;;;4990797;28;7255;-87
2022/08/02 10:05:46;;;;;;;;;;;;;;;;;;4990986;28;7483;-84
2022/08/02 10:08:13;;;;;;;;;;;;;;;;;;4991325;28;8552;-85
2022/08/02 10:10:39;;;;;;;;;;;;;;;;;;4990775;28;7243;-85
2022/08/02 10:13:05;;;;;;;;;;;;;;;;;;4991713;28;9513;-86
2022/08/02 10:15:31;;;;;;;;;;;;;;;;;;4990543;28;8405;-86
2022/08/02 10:17:57;;;;;;;;;;;;;;;;;;4990371;28;8480;-86
2022/08/02 10:20:24;;;;;;;;;;;;;;;;;;4991110;28;8459;-85
2022/08/02 10:22:52;;;;;;;;;;;;;;;;;;4974455;28;8554;-85
2022/08/02 10:25:19;;;;;;;;;;;;;;;;;;4990842;28;8503;-86
2022/08/02 10:27:45;;;;;;;;;;;;;;;;;;4990746;28;8596;-85
2022/08/02 10:30:11;;;;;;;;;;;;;;;;;;4990447;28;8821;-85
2022/08/02 10:32:42;;;;;;;;;;;;;;;;;;4990603;28;8688;-85
2022/08/02 10:35:20;;;;;;;;;;;;;;;;;;4975801;28;7456;-85
2022/08/02 10:37:49;;;;;;;;;;;;;;;;;;4990555;28;8414;-85
2022/08/02 10:40:27;;;;;;;;;;;;;;;;;;4990985;28;7422;-85
2022/08/02 10:42:59;;;;;;;;;;;;;;;;;;4990507;28;7116;-85
2022/08/02 10:45:25;;;;;;;;;;;;;;;;;;4989917;28;7273;-85
2022/08/02 10:47:59;;;;;;;;;;;;;;;;;;4990351;28;7518;-78
2022/08/02 10:50:44;;;;;;;;;;;;;;;;;;4990296;28;9033;-74
2022/08/02 10:53:29;;;;;;;;;;;;;;;;;;4990864;28;8479;-86
2022/08/02 10:55:56;;;;;;;;;;;;;;;;;;4994409;28;8799;-84
2022/08/02 10:58:23;;;;;;;;;;;;;;;;;;4994038;28;7132;-85
2022/08/02 11:00:50;;;;;;;;;;;;;;;;;;4994331;28;8960;-86
2022/08/02 11:03:27;;;;;;;;;;;;;;;;;;4992712;28;8473;-84
2022/08/02 11:06:04;;;;;;;;;;;;;;;;;;4992985;28;8810;-85
2022/08/02 11:08:30;;;;;;;;;;;;;;;;;;4992850;28;8755;-85
2022/08/02 11:11:07;;;;;;;;;;;;;;;;;;4992594;28;7499;-85
2022/08/02 11:13:53;;;;;;;;;;;;;;;;;;4992986;28;8833;-85
2022/08/02 11:16:18;;;;;;;;;;;;;;;;;;4992560;28;7107;-86
2022/08/02 11:18:50;;;;;;;;;;;;;;;;;;4993047;28;8492;-85
2022/08/02 11:21:22;;;;;;;;;;;;;;;;;;4993407;28;8483;-85
2022/08/02 11:23:47;;;;;;;;;;;;;;;;;;4993227;28;7306;-85
2022/08/02 11:26:28;;;;;;;;;;;;;;;;;;4993316;28;8548;-87
2022/08/02 11:28:54;;;;;;;;;;;;;;;;;;4992965;28;8506;-86
2022/08/02 11:31:20;;;;;;;;;;;;;;;;;;4993327;28;8481;-86
2022/08/02 11:33:47;;;;;;;;;;;;;;;;;;4993771;28;7243;-86
2022/08/02 11:36:14;;;;;;;;;;;;;;;;;;4993622;28;7123;-86
2022/08/02 11:38:39;;;;;;;;;;;;;;;;;;4993610;28;8667;-86
2022/08/02 11:41:05;;;;;;;;;;;;;;;;;;4993078;28;8575;-87
2022/08/02 11:43:31;;;;;;;;;;;;;;;;;;4993805;28;8589;-87
2022/08/02 11:46:00;;;;;;;;;;;;;;;;;;4993376;28;8444;-75
2022/08/02 11:48:31;;;;;;;;;;;;;;;;;;4993377;28;8589;-75
2022/08/02 11:51:22;;;;;;;;;;;;;;;;;;4993039;28;8821;-87
2022/08/02 11:53:50;;;;;;;;;;;;;;;;;;4991250;28;8860;-87
2022/08/02 11:56:16;;;;;;;;;;;;;;;;;;4992882;28;7210;-87
2022/08/02 11:59:00;;;;;;;;;;;;;;;;;;4993310;28;7217;-87
2022/08/02 12:01:26;;;;;;;;;;;;;;;;;;4993016;28;8894;-87
2022/08/02 12:03:52;;;;;;;;;;;;;;;;;;4992732;28;8831;-87
2022/08/02 12:06:18;;;;;;;;;;;;;;;;;;4992647;28;7420;-87
2022/08/02 12:08:43;;;;;;;;;;;;;;;;;;4992697;28;8774;-88
2022/08/02 12:11:09;;;;;;;;;;;;;;;;;;4992894;28;7215;-88
2022/08/02 12:13:42;;;;;;;;;;;;;;;;;;4992867;28;8797;-88
2022/08/02 12:21:40;;;;;;;;;;;;;;;;;;4978059;28;7031;-87
2022/08/02 12:24:06;;;;;;;;;;;;;;;;;;4992693;28;8560;-87
2022/08/02 12:26:45;;;;;;;;;;;;;;;;;;4993395;28;8476;-86
2022/08/02 12:29:10;;;;;;;;;;;;;;;;;;4992554;28;8550;-87
2022/08/02 12:31:41;;;;;;;;;;;;;;;;;;4992771;28;8742;-90
2022/08/02 12:34:16;;;;;;;;;;;;;;;;;;4992509;28;7206;-88
2022/08/02 12:36:42;;;;;;;;;;;;;;;;;;4992850;28;8546;-86
2022/08/02 12:39:15;;;;;;;;;;;;;;;;;;4975979;28;8822;-85
2022/08/02 12:41:40;;;;;;;;;;;;;;;;;;4992715;28;8574;-87
2022/08/02 12:44:16;;;;;;;;;;;;;;;;;;4992259;28;8568;-86
2022/08/02 12:46:43;;;;;;;;;;;;;;;;;;4988430;28;7200;-86
2022/08/02 12:49:16;;;;;;;;;;;;;;;;;;4990690;28;8451;-88
2022/08/02 12:51:42;;;;;;;;;;;;;;;;;;4991071;28;8492;-86
2022/08/02 12:54:16;;;;;;;;;;;;;;;;;;4991246;28;8748;-86
2022/08/02 12:56:42;;;;;;;;;;;;;;;;;;4991123;28;8566;-85
2022/08/02 12:59:08;;;;;;;;;;;;;;;;;;4990824;28;8611;-85
2022/08/02 13:01:34;;;;;;;;;;;;;;;;;;4990914;28;8480;-86
2022/08/02 13:03:59;;;;;;;;;;;;;;;;;;4991503;28;8529;-85
2022/08/02 13:06:25;;;;;;;;;;;;;;;;;;4991335;28;8466;-87
2022/08/02 13:08:53;;;;;;;;;;;;;;;;;;4990850;28;8485;-87
2022/08/02 13:11:19;;;;;;;;;;;;;;;;;;4991422;28;8533;-85
2022/08/02 13:13:44;;;;;;;;;;;;;;;;;;4991535;28;8801;-87
2022/08/02 13:16:10;;;;;;;;;;;;;;;;;;4990639;28;8510;-87
2022/08/02 13:18:36;;;;;;;;;;;;;;;;;;4991292;28;7110;-88
2022/08/02 13:21:03;;;;;;;;;;;;;;;;;;4991339;28;8507;-88
2022/08/02 13:23:28;;;;;;;;;;;;;;;;;;4990677;28;9063;-86
2022/08/02 13:25:54;;;;;;;;;;;;;;;;;;4991242;28;8352;-87
2022/08/02 13:28:20;;;;;;;;;;;;;;;;;;4991296;28;7153;-86
2022/08/02 13:30:46;;;;;;;;;;;;;;;;;;4990885;28;8692;-87
2022/08/02 13:33:12;;;;;;;;;;;;;;;;;;4991598;28;7344;-87
2022/08/02 13:35:37;;;;;;;;;;;;;;;;;;4991245;28;8481;-88
2022/08/02 13:38:03;;;;;;;;;;;;;;;;;;4990658;28;7192;-87
2022/08/02 13:40:29;;;;;;;;;;;;;;;;;;4991134;28;8943;-86
2022/08/02 13:42:55;;;;;;;;;;;;;;;;;;4990880;28;8765;-87
2022/08/02 13:45:21;;;;;;;;;;;;;;;;;;4974442;28;8656;-85
2022/08/02 13:47:48;;;;;;;;;;;;;;;;;;4990561;28;8451;-86
2022/08/02 13:50:13;;;;;;;;;;;;;;;;;;4990981;28;8529;-85
2022/08/02 13:52:39;;;;;;;;;;;;;;;;;;4990667;28;8508;-86
2022/08/02 13:55:05;;;;;;;;;;;;;;;;;;4990986;28;8831;-85
2022/08/02 13:57:30;;;;;;;;;;;;;;;;;;4990604;28;8791;-86
2022/08/02 13:59:56;;;;;;;;;;;;;;;;;;4990351;28;8502;-86
2022/08/02 14:02:21;;;;;;;;;;;;;;;;;;4990735;28;8485;-86
2022/08/02 14:04:47;;;;;;;;;;;;;;;;;;4990600;28;7293;-76
2022/08/02 14:07:12;;;;;;;;;;;;;;;;;;4989271;28;8567;-86
2022/08/02 14:09:39;;;;;;;;;;;;;;;;;;4989450;28;8778;-86
2022/08/02 14:12:05;;;;;;;;;;;;;;;;;;4989034;28;8803;-85
2022/08/02 14:14:30;;;;;;;;;;;;;;;;;;4989506;28;8469;-86
2022/08/02 14:16:56;;;;;;;;;;;;;;;;;;4990055;28;8546;-86
2022/08/02 14:19:22;;;;;;;;;;;;;;;;;;4990241;28;7250;-86
2022/08/02 14:21:48;;;;;;;;;;;;;;;;;;4990100;28;7403;-86
2022/08/02 14:24:15;;;;;;;;;;;;;;;;;;4990318;28;7266;-86
2022/08/02 14:26:41;;;;;;;;;;;;;;;;;;4990201;28;7318;-86
2022/08/02 14:29:06;;;;;;;;;;;;;;;;;;4977141;28;8355;-86
2022/08/02 14:31:32;;;;;;;;;;;;;;;;;;4994408;28;8492;-86
2022/08/02 14:33:57;;;;;;;;;;;;;;;;;;4994442;28;8569;-86
2022/08/02 14:36:23;;;;;;;;;;;;;;;;;;4993739;28;7127;-86
2022/08/02 14:38:52;;;;;;;;;;;;;;;;;;4993955;28;8738;-76
2022/08/02 14:41:17;;;;;;;;;;;;;;;;;;4993999;28;8580;-76
2022/08/02 14:46:27;;;;;;;;;;;;;;;;;;4979083;28;7049;-76
2022/08/02 14:48:52;;;;;;;;;;;;;;;;;;4993547;28;7482;-76
2022/08/02 14:51:18;;;;;;;;;;;;;;;;;;4993738;28;8824;-75
2022/08/02 14:53:43;;;;;;;;;;;;;;;;;;4993973;28;8588;-76
2022/08/02 14:56:08;;;;;;;;;;;;;;;;;;4993507;28;8561;-75
2022/08/02 14:58:34;;;;;;;;;;;;;;;;;;4993293;28;7123;-75
2022/08/02 15:01:00;;;;;;;;;;;;;;;;;;4993286;28;8496;-73
2022/08/02 15:03:25;;;;;;;;;;;;;;;;;;4993544;28;7115;-72
2022/08/02 15:05:51;;;;;;;;;;;;;;;;;;4992823;28;8423;-72
2022/08/02 15:08:16;;;;;;;;;;;;;;;;;;4992859;28;8696;-72
2022/08/02 15:10:43;;;;;;;;;;;;;;;;;;4995562;28;9434;-72
2022/08/02 15:13:08;;;;;;;;;;;;;;;;;;4994455;28;8405;-76
2022/08/02 15:15:34;;;;;;;;;;;;;;;;;;4994147;28;8336;-76
2022/08/02 15:17:59;;;;;;;;;;;;;;;;;;4993626;28;8560;-75
2022/08/02 15:20:25;;;;;;;;;;;;;;;;;;4992631;28;8541;-77
2022/08/02 15:22:50;;;;;;;;;;;;;;;;;;4993797;28;7485;-78
2022/08/02 15:25:17;;;;;;;;;;;;;;;;;;4992852;28;8891;-75
2022/08/02 15:27:43;;;;;;;;;;;;;;;;;;4993706;28;8924;-87
2022/08/02 15:30:09;;;;;;;;;;;;;;;;;;4993659;28;8878;-89
2022/08/02 15:32:35;;;;;;;;;;;;;;;;;;4993181;28;8585;-89
2022/08/02 15:35:01;;;;;;;;;;;;;;;;;;4992944;28;8489;-89
2022/08/02 15:37:27;;;;;;;;;;;;;;;;;;4993055;28;7101;-89
2022/08/02 15:39:52;;;;;;;;;;;;;;;;;;4992450;28;7306;-88
2022/08/02 15:42:18;;;;;;;;;;;;;;;;;;4993604;28;8442;-88
2022/08/02 15:44:44;;;;;;;;;;;;;;;;;;4992981;28;8763;-88
2022/08/02 15:47:10;;;;;;;;;;;;;;;;;;4992707;28;7082;-89
2022/08/02 15:49:36;;;;;;;;;;;;;;;;;;4992710;28;8969;-88
2022/08/02 15:52:02;;;;;;;;;;;;;;;;;;4992818;28;8514;-89
2022/08/02 15:54:27;;;;;;;;;;;;;;;;;;4993278;28;8476;-91
2022/08/02 15:56:53;;;;;;;;;;;;;;;;;;4993036;28;8459;-89
2022/08/02 15:59:18;;;;;;;;;;;;;;;;;;4992864;28;8410;-88
2022/08/02 16:01:45;;;;;;;;;;;;;;;;;;4992998;28;8482;-88
2022/08/02 16:04:12;;;;;;;;;;;;;;;;;;4993142;28;7132;-90
2022/08/02 16:06:37;;;;;;;;;;;;;;;;;;4994145;28;8547;-89
2022/08/02 16:09:03;;;;;;;;;;;;;;;;;;4995877;28;8400;-90
2022/08/02 16:11:28;;;;;;;;;;;;;;;;;;4995559;28;8851;-89
2022/08/02 16:13:54;;;;;;;;;;;;;;;;;;4995560;28;7232;-88
2022/08/02 16:16:24;;;;;;;;;;;;;;;;;;4995808;28;8568;-88
2022/08/02 16:18:51;;;;;;;;;;;;;;;;;;4995879;28;7064;-87
2022/08/02 16:21:16;;;;;;;;;;;;;;;;;;4996351;28;8488;-88
2022/08/02 16:23:42;;;;;;;;;;;;;;;;;;4995818;28;8812;-87
2022/08/02 16:26:08;;;;;;;;;;;;;;;;;;4995767;28;8489;-87
2022/08/02 16:28:34;;;;;;;;;;;;;;;;;;4995640;28;8483;-87
2022/08/02 16:30:59;;;;;;;;;;;;;;;;;;4995617;28;8575;-87
2022/08/02 16:33:24;;;;;;;;;;;;;;;;;;4995526;28;8544;-87
2022/08/02 16:35:50;;;;;;;;;;;;;;;;;;4995181;28;8482;-87
2022/08/02 16:38:16;;;;;;;;;;;;;;;;;;4995544;28;7122;-87
2022/08/02 16:40:41;;;;;;;;;;;;;;;;;;4995670;28;8145;-87
2022/08/02 16:43:07;;;;;;;;;;;;;;;;;;4995379;28;8544;-87
2022/08/02 16:45:32;;;;;;;;;;;;;;;;;;4995432;28;7220;-87
2022/08/02 16:47:58;;;;;;;;;;;;;;;;;;4995577;28;7306;-87
2022/08/02 16:50:24;;;;;;;;;;;;;;;;;;4994287;28;8481;-87
2022/08/02 16:52:50;;;;;;;;;;;;;;;;;;4995406;28;7257;-88
2022/08/02 16:55:15;;;;;;;;;;;;;;;;;;4995121;28;7494;-88
2022/08/02 16:57:41;;;;;;;;;;;;;;;;;;4995136;28;7125;-88
2022/08/02 17:00:08;;;;;;;;;;;;;;;;;;4995458;28;8518;-89
2022/08/02 17:02:36;;;;;;;;;;;;;;;;;;4995581;28;8505;-88
2022/08/02 17:05:02;;;;;;;;;;;;;;;;;;4995235;28;7105;-87
2022/08/02 17:07:27;;;;;;;;;;;;;;;;;;4995304;28;8788;-87
2022/08/02 17:09:53;;;;;;;;;;;;;;;;;;4995237;28;8541;-88
2022/08/02 17:12:18;;;;;;;;;;;;;;;;;;4994947;28;8813;-87
2022/08/02 17:14:45;;;;;;;;;;;;;;;;;;4994922;28;8448;-87
2022/08/02 17:17:10;;;;;;;;;;;;;;;;;;4994499;28;8696;-87